sensor_id;sensor_type;location;lat;lon;timestamp;temperature;humidity
35463;DHT22;21578;47.892;9.970;2023-05-16T00:02:15;10.20;96.60
35463;DHT22;21578;47.892;9.970;2023-05-16T00:07:02;10.20;96.60
35463;DHT22;21578;47.892;9.970;2023-05-16T00:11:50;10.20;96.60
35463;DHT22;21578;47.892;9.970;2023-05-16T00:16:38;10.20;96.60
35463;DHT22;21578;47.892;9.970;2023-05-16T00:21:26;10.20;96.60
35463;DHT22;21578;47.892;9.970;2023-05-16T00:26:13;10.20;96.60
35463;DHT22;21578;47.892;9.970;2023-05-16T00:31:00;10.20;96.60
35463;DHT22;21578;47.892;9.970;2023-05-16T00:35:48;10.20;96.60
35463;DHT22;21578;47.892;9.970;2023-05-16T00:40:35;10.20;96.60
35463;DHT22;21578;47.892;9.970;2023-05-16T00:45:22;10.20;96.60
35463;DHT22;21578;47.892;9.970;2023-05-16T00:50:09;10.20;96.60
35463;DHT22;21578;47.892;9.970;2023-05-16T00:54:58;10.30;96.60
35463;DHT22;21578;47.892;9.970;2023-05-16T00:59:46;10.30;96.60
35463;DHT22;21578;47.892;9.970;2023-05-16T01:04:33;10.50;96.60
35463;DHT22;21578;47.892;9.970;2023-05-16T01:09:21;10.30;96.60
35463;DHT22;21578;47.892;9.970;2023-05-16T01:14:13;10.20;96.60
35463;DHT22;21578;47.892;9.970;2023-05-16T01:19:10;10.20;96.60
35463;DHT22;21578;47.892;9.970;2023-05-16T01:24:06;10.20;96.60
35463;DHT22;21578;47.892;9.970;2023-05-16T01:28:57;10.30;96.60
35463;DHT22;21578;47.892;9.970;2023-05-16T01:33:44;10.30;96.60
35463;DHT22;21578;47.892;9.970;2023-05-16T01:38:36;10.30;96.60
35463;DHT22;21578;47.892;9.970;2023-05-16T01:43:32;10.30;96.60
35463;DHT22;21578;47.892;9.970;2023-05-16T01:48:22;10.30;96.60
35463;DHT22;21578;47.892;9.970;2023-05-16T01:53:15;10.30;96.60
35463;DHT22;21578;47.892;9.970;2023-05-16T01:58:06;10.30;96.60
35463;DHT22;21578;47.892;9.970;2023-05-16T02:02:53;10.30;96.60
35463;DHT22;21578;47.892;9.970;2023-05-16T02:07:42;10.30;96.60
35463;DHT22;21578;47.892;9.970;2023-05-16T02:12:29;10.30;96.60
35463;DHT22;21578;47.892;9.970;2023-05-16T02:17:16;10.30;96.60
35463;DHT22;21578;47.892;9.970;2023-05-16T02:22:03;10.30;96.60
35463;DHT22;21578;47.892;9.970;2023-05-16T02:26:52;10.30;96.60
35463;DHT22;21578;47.892;9.970;2023-05-16T02:31:39;10.30;96.60
35463;DHT22;21578;47.892;9.970;2023-05-16T02:36:27;10.20;96.60
35463;DHT22;21578;47.892;9.970;2023-05-16T02:41:14;10.10;96.60
35463;DHT22;21578;47.892;9.970;2023-05-16T02:46:03;10.10;96.60
35463;DHT22;21578;47.892;9.970;2023-05-16T02:50:51;10.00;96.60
35463;DHT22;21578;47.892;9.970;2023-05-16T02:55:38;10.00;96.60
35463;DHT22;21578;47.892;9.970;2023-05-16T03:00:25;9.90;96.60
35463;DHT22;21578;47.892;9.970;2023-05-16T03:05:13;9.80;96.60
35463;DHT22;21578;47.892;9.970;2023-05-16T03:10:00;9.90;96.60
35463;DHT22;21578;47.892;9.970;2023-05-16T03:14:47;9.90;96.60
35463;DHT22;21578;47.892;9.970;2023-05-16T03:19:34;9.70;96.60
35463;DHT22;21578;47.892;9.970;2023-05-16T03:24:22;9.60;96.60
35463;DHT22;21578;47.892;9.970;2023-05-16T03:29:09;9.50;96.60
35463;DHT22;21578;47.892;9.970;2023-05-16T03:33:56;9.40;96.60
35463;DHT22;21578;47.892;9.970;2023-05-16T03:38:44;9.40;96.60
35463;DHT22;21578;47.892;9.970;2023-05-16T03:43:32;9.40;96.60
35463;DHT22;21578;47.892;9.970;2023-05-16T03:48:19;9.40;96.60
35463;DHT22;21578;47.892;9.970;2023-05-16T03:53:06;9.40;96.60
35463;DHT22;21578;47.892;9.970;2023-05-16T03:57:53;9.50;96.60
35463;DHT22;21578;47.892;9.970;2023-05-16T04:02:41;9.50;96.60
35463;DHT22;21578;47.892;9.970;2023-05-16T04:07:28;9.70;96.60
35463;DHT22;21578;47.892;9.970;2023-05-16T04:12:15;9.60;96.60
35463;DHT22;21578;47.892;9.970;2023-05-16T04:17:02;9.70;96.60
35463;DHT22;21578;47.892;9.970;2023-05-16T04:21:50;9.70;96.60
35463;DHT22;21578;47.892;9.970;2023-05-16T04:26:37;9.70;96.60
35463;DHT22;21578;47.892;9.970;2023-05-16T04:31:24;9.80;96.60
35463;DHT22;21578;47.892;9.970;2023-05-16T04:36:12;9.80;96.60
35463;DHT22;21578;47.892;9.970;2023-05-16T04:41:00;9.90;96.60
35463;DHT22;21578;47.892;9.970;2023-05-16T04:45:48;9.90;96.60
35463;DHT22;21578;47.892;9.970;2023-05-16T04:50:35;9.90;96.60
35463;DHT22;21578;47.892;9.970;2023-05-16T04:55:22;9.90;96.60
35463;DHT22;21578;47.892;9.970;2023-05-16T05:00:12;10.00;96.60
35463;DHT22;21578;47.892;9.970;2023-05-16T05:04:59;9.90;96.60
35463;DHT22;21578;47.892;9.970;2023-05-16T05:09:46;10.00;96.60
35463;DHT22;21578;47.892;9.970;2023-05-16T05:14:33;10.00;96.60
35463;DHT22;21578;47.892;9.970;2023-05-16T05:19:21;10.00;96.60
35463;DHT22;21578;47.892;9.970;2023-05-16T05:24:08;10.00;96.60
35463;DHT22;21578;47.892;9.970;2023-05-16T05:28:55;10.10;96.60
35463;DHT22;21578;47.892;9.970;2023-05-16T05:33:42;10.30;96.60
35463;DHT22;21578;47.892;9.970;2023-05-16T05:38:31;10.30;96.60
35463;DHT22;21578;47.892;9.970;2023-05-16T05:43:18;10.30;96.60
35463;DHT22;21578;47.892;9.970;2023-05-16T05:48:05;10.30;96.60
35463;DHT22;21578;47.892;9.970;2023-05-16T05:52:53;10.30;96.60
35463;DHT22;21578;47.892;9.970;2023-05-16T05:57:42;10.20;96.60
35463;DHT22;21578;47.892;9.970;2023-05-16T06:02:29;10.20;96.60
35463;DHT22;21578;47.892;9.970;2023-05-16T06:07:17;10.20;96.60
35463;DHT22;21578;47.892;9.970;2023-05-16T06:12:04;10.20;96.60
35463;DHT22;21578;47.892;9.970;2023-05-16T06:16:53;10.30;96.60
35463;DHT22;21578;47.892;9.970;2023-05-16T06:21:40;10.30;96.60
35463;DHT22;21578;47.892;9.970;2023-05-16T06:26:26;10.40;96.60
35463;DHT22;21578;47.892;9.970;2023-05-16T06:31:13;10.40;96.60
35463;DHT22;21578;47.892;9.970;2023-05-16T06:36:02;10.30;96.60
35463;DHT22;21578;47.892;9.970;2023-05-16T06:40:49;10.20;96.60
35463;DHT22;21578;47.892;9.970;2023-05-16T06:45:36;10.30;96.60
35463;DHT22;21578;47.892;9.970;2023-05-16T06:50:22;10.30;96.60
35463;DHT22;21578;47.892;9.970;2023-05-16T06:55:11;10.40;96.60
35463;DHT22;21578;47.892;9.970;2023-05-16T06:59:58;10.60;96.60
35463;DHT22;21578;47.892;9.970;2023-05-16T07:04:45;10.80;96.60
35463;DHT22;21578;47.892;9.970;2023-05-16T07:09:32;11.00;96.60
35463;DHT22;21578;47.892;9.970;2023-05-16T07:14:21;11.10;96.60
35463;DHT22;21578;47.892;9.970;2023-05-16T07:19:08;11.20;96.60
35463;DHT22;21578;47.892;9.970;2023-05-16T07:23:55;11.00;96.60
35463;DHT22;21578;47.892;9.970;2023-05-16T07:28:42;11.00;96.60
35463;DHT22;21578;47.892;9.970;2023-05-16T07:33:30;11.10;96.60
35463;DHT22;21578;47.892;9.970;2023-05-16T07:38:17;11.10;96.60
35463;DHT22;21578;47.892;9.970;2023-05-16T07:43:04;11.40;96.60
35463;DHT22;21578;47.892;9.970;2023-05-16T07:47:51;11.50;96.60
35463;DHT22;21578;47.892;9.970;2023-05-16T07:52:39;11.70;96.60
35463;DHT22;21578;47.892;9.970;2023-05-16T07:57:26;11.70;96.60
35463;DHT22;21578;47.892;9.970;2023-05-16T08:02:13;11.70;96.60
35463;DHT22;21578;47.892;9.970;2023-05-16T08:07:00;11.60;96.60
35463;DHT22;21578;47.892;9.970;2023-05-16T08:11:48;11.70;96.60
35463;DHT22;21578;47.892;9.970;2023-05-16T08:16:35;11.80;96.60
35463;DHT22;21578;47.892;9.970;2023-05-16T08:21:22;11.90;96.60
35463;DHT22;21578;47.892;9.970;2023-05-16T08:26:09;12.00;96.60
35463;DHT22;21578;47.892;9.970;2023-05-16T08:30:57;11.70;96.60
35463;DHT22;21578;47.892;9.970;2023-05-16T08:35:44;11.80;96.60
35463;DHT22;21578;47.892;9.970;2023-05-16T08:40:34;11.80;96.60
35463;DHT22;21578;47.892;9.970;2023-05-16T08:45:21;11.90;96.60
35463;DHT22;21578;47.892;9.970;2023-05-16T08:50:11;11.90;96.60
35463;DHT22;21578;47.892;9.970;2023-05-16T08:55:01;11.90;96.60
35463;DHT22;21578;47.892;9.970;2023-05-16T08:59:49;12.00;96.60
35463;DHT22;21578;47.892;9.970;2023-05-16T09:04:39;11.90;96.60
35463;DHT22;21578;47.892;9.970;2023-05-16T09:09:28;11.90;96.60
35463;DHT22;21578;47.892;9.970;2023-05-16T09:14:15;11.90;96.60
35463;DHT22;21578;47.892;9.970;2023-05-16T09:19:02;12.00;96.60
35463;DHT22;21578;47.892;9.970;2023-05-16T09:23:49;12.10;96.60
35463;DHT22;21578;47.892;9.970;2023-05-16T09:28:38;12.10;96.60
35463;DHT22;21578;47.892;9.970;2023-05-16T09:33:27;12.20;96.60
35463;DHT22;21578;47.892;9.970;2023-05-16T09:38:15;12.30;96.60
35463;DHT22;21578;47.892;9.970;2023-05-16T09:43:03;12.20;96.60
35463;DHT22;21578;47.892;9.970;2023-05-16T09:47:52;12.50;96.60
35463;DHT22;21578;47.892;9.970;2023-05-16T09:52:39;12.50;96.60
35463;DHT22;21578;47.892;9.970;2023-05-16T09:57:27;12.30;96.60
35463;DHT22;21578;47.892;9.970;2023-05-16T10:02:15;12.30;96.60
35463;DHT22;21578;47.892;9.970;2023-05-16T10:07:05;12.20;96.60
35463;DHT22;21578;47.892;9.970;2023-05-16T10:11:54;12.10;96.60
35463;DHT22;21578;47.892;9.970;2023-05-16T10:16:42;12.10;96.60
35463;DHT22;21578;47.892;9.970;2023-05-16T10:21:31;12.30;96.60
35463;DHT22;21578;47.892;9.970;2023-05-16T10:26:21;12.50;96.60
35463;DHT22;21578;47.892;9.970;2023-05-16T10:31:10;12.50;96.60
35463;DHT22;21578;47.892;9.970;2023-05-16T10:35:57;12.40;96.60
35463;DHT22;21578;47.892;9.970;2023-05-16T10:40:46;12.50;96.60
35463;DHT22;21578;47.892;9.970;2023-05-16T10:45:39;12.30;96.60
35463;DHT22;21578;47.892;9.970;2023-05-16T10:50:36;11.80;96.60
35463;DHT22;21578;47.892;9.970;2023-05-16T10:55:23;11.50;96.60
35463;DHT22;21578;47.892;9.970;2023-05-16T11:00:21;11.40;96.60
35463;DHT22;21578;47.892;9.970;2023-05-16T11:05:12;11.00;96.60
35463;DHT22;21578;47.892;9.970;2023-05-16T11:10:05;10.60;96.60
35463;DHT22;21578;47.892;9.970;2023-05-16T11:14:52;10.60;96.60
35463;DHT22;21578;47.892;9.970;2023-05-16T11:19:41;10.70;96.60
35463;DHT22;21578;47.892;9.970;2023-05-16T11:24:30;10.70;96.60
35463;DHT22;21578;47.892;9.970;2023-05-16T11:29:17;10.70;96.60
35463;DHT22;21578;47.892;9.970;2023-05-16T11:34:04;10.80;96.60
35463;DHT22;21578;47.892;9.970;2023-05-16T11:38:52;10.70;96.60
35463;DHT22;21578;47.892;9.970;2023-05-16T11:43:42;10.80;96.60
35463;DHT22;21578;47.892;9.970;2023-05-16T11:48:29;10.80;96.60
35463;DHT22;21578;47.892;9.970;2023-05-16T11:53:16;10.80;96.60
35463;DHT22;21578;47.892;9.970;2023-05-16T11:58:03;10.90;96.60
35463;DHT22;21578;47.892;9.970;2023-05-16T12:02:53;10.90;96.60
35463;DHT22;21578;47.892;9.970;2023-05-16T12:07:41;10.90;96.60
35463;DHT22;21578;47.892;9.970;2023-05-16T12:12:29;10.80;96.60
35463;DHT22;21578;47.892;9.970;2023-05-16T12:17:16;10.70;96.60
35463;DHT22;21578;47.892;9.970;2023-05-16T12:22:15;10.80;96.60
35463;DHT22;21578;47.892;9.970;2023-05-16T12:27:02;10.80;96.60
35463;DHT22;21578;47.892;9.970;2023-05-16T12:31:51;10.80;96.60
35463;DHT22;21578;47.892;9.970;2023-05-16T12:36:39;10.70;96.60
35463;DHT22;21578;47.892;9.970;2023-05-16T12:41:29;10.70;96.60
35463;DHT22;21578;47.892;9.970;2023-05-16T12:46:18;10.50;96.60
35463;DHT22;21578;47.892;9.970;2023-05-16T12:51:10;10.60;96.60
35463;DHT22;21578;47.892;9.970;2023-05-16T12:55:58;10.60;96.60
35463;DHT22;21578;47.892;9.970;2023-05-16T13:00:46;10.60;96.60
35463;DHT22;21578;47.892;9.970;2023-05-16T13:05:33;10.60;96.60
35463;DHT22;21578;47.892;9.970;2023-05-16T13:10:20;10.60;96.60
35463;DHT22;21578;47.892;9.970;2023-05-16T13:15:09;10.60;96.60
35463;DHT22;21578;47.892;9.970;2023-05-16T13:19:57;10.60;96.60
35463;DHT22;21578;47.892;9.970;2023-05-16T13:24:44;10.60;96.60
35463;DHT22;21578;47.892;9.970;2023-05-16T13:29:31;10.60;96.60
35463;DHT22;21578;47.892;9.970;2023-05-16T13:34:18;10.40;96.60
35463;DHT22;21578;47.892;9.970;2023-05-16T13:39:06;10.40;96.60
35463;DHT22;21578;47.892;9.970;2023-05-16T13:43:54;10.30;96.60
35463;DHT22;21578;47.892;9.970;2023-05-16T13:48:41;10.30;96.60
35463;DHT22;21578;47.892;9.970;2023-05-16T13:53:28;10.20;96.60
35463;DHT22;21578;47.892;9.970;2023-05-16T13:58:16;10.20;96.60
35463;DHT22;21578;47.892;9.970;2023-05-16T14:03:03;10.20;96.60
35463;DHT22;21578;47.892;9.970;2023-05-16T14:07:50;10.30;96.60
35463;DHT22;21578;47.892;9.970;2023-05-16T14:12:37;10.30;96.60
35463;DHT22;21578;47.892;9.970;2023-05-16T14:17:26;10.30;96.60
35463;DHT22;21578;47.892;9.970;2023-05-16T14:22:13;10.30;96.60
35463;DHT22;21578;47.892;9.970;2023-05-16T14:27:00;10.20;96.60
35463;DHT22;21578;47.892;9.970;2023-05-16T14:31:47;10.20;96.60
35463;DHT22;21578;47.892;9.970;2023-05-16T14:36:36;10.40;96.60
35463;DHT22;21578;47.892;9.970;2023-05-16T14:41:23;10.50;96.60
35463;DHT22;21578;47.892;9.970;2023-05-16T14:46:10;10.60;96.60
35463;DHT22;21578;47.892;9.970;2023-05-16T14:50:57;10.70;96.60
35463;DHT22;21578;47.892;9.970;2023-05-16T14:55:45;10.70;96.60
35463;DHT22;21578;47.892;9.970;2023-05-16T15:00:32;10.70;96.60
35463;DHT22;21578;47.892;9.970;2023-05-16T15:05:19;10.80;96.60
35463;DHT22;21578;47.892;9.970;2023-05-16T15:10:07;10.80;96.60
35463;DHT22;21578;47.892;9.970;2023-05-16T15:14:55;10.80;96.60
35463;DHT22;21578;47.892;9.970;2023-05-16T15:19:42;10.70;96.60
35463;DHT22;21578;47.892;9.970;2023-05-16T15:24:29;10.90;96.60
35463;DHT22;21578;47.892;9.970;2023-05-16T15:29:16;11.00;96.60
35463;DHT22;21578;47.892;9.970;2023-05-16T15:34:05;11.00;96.60
35463;DHT22;21578;47.892;9.970;2023-05-16T15:38:53;11.00;96.60
35463;DHT22;21578;47.892;9.970;2023-05-16T15:43:40;11.00;96.60
35463;DHT22;21578;47.892;9.970;2023-05-16T15:48:27;10.90;96.60
35463;DHT22;21578;47.892;9.970;2023-05-16T15:53:15;10.90;96.60
35463;DHT22;21578;47.892;9.970;2023-05-16T15:58:02;10.90;96.60
35463;DHT22;21578;47.892;9.970;2023-05-16T16:02:50;10.90;96.60
35463;DHT22;21578;47.892;9.970;2023-05-16T16:07:37;10.90;96.60
35463;DHT22;21578;47.892;9.970;2023-05-16T16:12:28;10.80;96.60
35463;DHT22;21578;47.892;9.970;2023-05-16T16:17:15;10.80;96.60
35463;DHT22;21578;47.892;9.970;2023-05-16T16:22:02;10.60;96.60
35463;DHT22;21578;47.892;9.970;2023-05-16T16:26:49;10.60;96.60
35463;DHT22;21578;47.892;9.970;2023-05-16T16:31:38;10.40;96.60
35463;DHT22;21578;47.892;9.970;2023-05-16T16:36:24;10.30;96.60
35463;DHT22;21578;47.892;9.970;2023-05-16T16:41:11;10.20;96.60
35463;DHT22;21578;47.892;9.970;2023-05-16T16:46:01;10.10;96.60
35463;DHT22;21578;47.892;9.970;2023-05-16T16:50:49;10.00;96.60
35463;DHT22;21578;47.892;9.970;2023-05-16T16:55:36;10.00;96.60
35463;DHT22;21578;47.892;9.970;2023-05-16T17:00:23;9.90;96.60
35463;DHT22;21578;47.892;9.970;2023-05-16T17:05:10;9.80;96.60
35463;DHT22;21578;47.892;9.970;2023-05-16T17:09:59;9.80;96.60
35463;DHT22;21578;47.892;9.970;2023-05-16T17:14:49;9.80;96.60
35463;DHT22;21578;47.892;9.970;2023-05-16T17:19:36;9.70;96.60
35463;DHT22;21578;47.892;9.970;2023-05-16T17:24:23;9.70;96.60
35463;DHT22;21578;47.892;9.970;2023-05-16T17:29:11;9.60;96.60
35463;DHT22;21578;47.892;9.970;2023-05-16T17:33:58;9.50;96.60
35463;DHT22;21578;47.892;9.970;2023-05-16T17:38:46;9.40;96.60
35463;DHT22;21578;47.892;9.970;2023-05-16T17:43:33;9.30;96.60
35463;DHT22;21578;47.892;9.970;2023-05-16T17:48:21;9.30;96.60
35463;DHT22;21578;47.892;9.970;2023-05-16T17:53:09;9.30;96.60
35463;DHT22;21578;47.892;9.970;2023-05-16T17:57:55;9.20;96.60
35463;DHT22;21578;47.892;9.970;2023-05-16T18:02:42;9.20;96.60
35463;DHT22;21578;47.892;9.970;2023-05-16T18:07:31;9.00;96.60
35463;DHT22;21578;47.892;9.970;2023-05-16T18:12:18;9.00;96.60
35463;DHT22;21578;47.892;9.970;2023-05-16T18:17:05;9.00;96.60
35463;DHT22;21578;47.892;9.970;2023-05-16T18:21:52;9.00;96.60
35463;DHT22;21578;47.892;9.970;2023-05-16T18:26:41;9.00;96.60
35463;DHT22;21578;47.892;9.970;2023-05-16T18:31:28;8.90;96.60
35463;DHT22;21578;47.892;9.970;2023-05-16T18:36:18;9.00;96.60
35463;DHT22;21578;47.892;9.970;2023-05-16T18:41:04;9.00;96.60
35463;DHT22;21578;47.892;9.970;2023-05-16T18:45:53;9.00;96.60
35463;DHT22;21578;47.892;9.970;2023-05-16T18:50:40;9.00;96.60
35463;DHT22;21578;47.892;9.970;2023-05-16T18:55:27;8.90;96.60
35463;DHT22;21578;47.892;9.970;2023-05-16T19:00:14;8.70;96.60
35463;DHT22;21578;47.892;9.970;2023-05-16T19:05:03;8.70;96.60
35463;DHT22;21578;47.892;9.970;2023-05-16T19:09:50;8.70;96.60
35463;DHT22;21578;47.892;9.970;2023-05-16T19:14:37;8.70;96.60
35463;DHT22;21578;47.892;9.970;2023-05-16T19:19:24;8.60;96.60
35463;DHT22;21578;47.892;9.970;2023-05-16T19:24:12;8.60;96.60
35463;DHT22;21578;47.892;9.970;2023-05-16T19:28:59;8.60;96.60
35463;DHT22;21578;47.892;9.970;2023-05-16T19:33:46;8.50;96.60
35463;DHT22;21578;47.892;9.970;2023-05-16T19:38:33;8.50;96.60
35463;DHT22;21578;47.892;9.970;2023-05-16T19:43:21;8.50;96.60
35463;DHT22;21578;47.892;9.970;2023-05-16T19:48:08;8.50;96.60
35463;DHT22;21578;47.892;9.970;2023-05-16T19:52:55;8.50;96.60
35463;DHT22;21578;47.892;9.970;2023-05-16T19:57:42;8.50;96.60
35463;DHT22;21578;47.892;9.970;2023-05-16T20:02:30;8.40;96.60
35463;DHT22;21578;47.892;9.970;2023-05-16T20:07:17;8.40;96.60
35463;DHT22;21578;47.892;9.970;2023-05-16T20:12:05;8.40;96.60
35463;DHT22;21578;47.892;9.970;2023-05-16T20:16:52;8.40;96.60
35463;DHT22;21578;47.892;9.970;2023-05-16T20:21:41;8.30;96.60
35463;DHT22;21578;47.892;9.970;2023-05-16T20:26:27;8.30;96.60
35463;DHT22;21578;47.892;9.970;2023-05-16T20:31:15;8.30;96.60
35463;DHT22;21578;47.892;9.970;2023-05-16T20:36:01;8.20;96.60
35463;DHT22;21578;47.892;9.970;2023-05-16T20:40:50;8.20;96.60
35463;DHT22;21578;47.892;9.970;2023-05-16T20:45:37;8.20;96.60
35463;DHT22;21578;47.892;9.970;2023-05-16T20:50:23;8.20;96.60
35463;DHT22;21578;47.892;9.970;2023-05-16T20:55:10;8.20;96.60
35463;DHT22;21578;47.892;9.970;2023-05-16T20:59:59;8.20;96.60
35463;DHT22;21578;47.892;9.970;2023-05-16T21:04:45;8.20;96.60
35463;DHT22;21578;47.892;9.970;2023-05-16T21:09:32;8.10;96.60
35463;DHT22;21578;47.892;9.970;2023-05-16T21:14:21;8.10;96.60
35463;DHT22;21578;47.892;9.970;2023-05-16T21:19:09;8.10;96.60
35463;DHT22;21578;47.892;9.970;2023-05-16T21:23:56;8.10;96.60
35463;DHT22;21578;47.892;9.970;2023-05-16T21:28:43;8.10;96.60
35463;DHT22;21578;47.892;9.970;2023-05-16T21:33:30;8.00;96.60
35463;DHT22;21578;47.892;9.970;2023-05-16T21:38:18;8.00;96.60
35463;DHT22;21578;47.892;9.970;2023-05-16T21:43:05;8.00;96.60
35463;DHT22;21578;47.892;9.970;2023-05-16T21:47:52;8.00;96.60
35463;DHT22;21578;47.892;9.970;2023-05-16T21:52:39;8.00;96.60
35463;DHT22;21578;47.892;9.970;2023-05-16T21:57:27;8.00;96.60
35463;DHT22;21578;47.892;9.970;2023-05-16T22:02:14;8.00;96.60
35463;DHT22;21578;47.892;9.970;2023-05-16T22:07:01;8.00;96.60
35463;DHT22;21578;47.892;9.970;2023-05-16T22:11:48;8.00;96.60
35463;DHT22;21578;47.892;9.970;2023-05-16T22:16:36;8.00;96.60
35463;DHT22;21578;47.892;9.970;2023-05-16T22:21:23;8.00;96.60
35463;DHT22;21578;47.892;9.970;2023-05-16T22:26:10;7.90;96.60
35463;DHT22;21578;47.892;9.970;2023-05-16T22:30:57;7.90;96.60
35463;DHT22;21578;47.892;9.970;2023-05-16T22:35:45;7.90;96.60
35463;DHT22;21578;47.892;9.970;2023-05-16T22:40:32;7.90;96.60
35463;DHT22;21578;47.892;9.970;2023-05-16T22:45:19;7.90;96.60
35463;DHT22;21578;47.892;9.970;2023-05-16T22:50:07;7.80;96.60
35463;DHT22;21578;47.892;9.970;2023-05-16T22:54:55;7.80;96.60
35463;DHT22;21578;47.892;9.970;2023-05-16T22:59:43;7.70;96.60
35463;DHT22;21578;47.892;9.970;2023-05-16T23:04:30;7.70;96.60
35463;DHT22;21578;47.892;9.970;2023-05-16T23:09:17;7.60;96.60
35463;DHT22;21578;47.892;9.970;2023-05-16T23:14:05;7.60;96.60
35463;DHT22;21578;47.892;9.970;2023-05-16T23:18:52;7.60;96.60
35463;DHT22;21578;47.892;9.970;2023-05-16T23:23:40;7.70;96.60
35463;DHT22;21578;47.892;9.970;2023-05-16T23:28:26;7.60;96.60
35463;DHT22;21578;47.892;9.970;2023-05-16T23:33:15;7.70;96.60
35463;DHT22;21578;47.892;9.970;2023-05-16T23:38:02;7.70;96.60
35463;DHT22;21578;47.892;9.970;2023-05-16T23:42:49;7.70;96.60
35463;DHT22;21578;47.892;9.970;2023-05-16T23:47:36;7.60;96.60
35463;DHT22;21578;47.892;9.970;2023-05-16T23:52:24;7.60;96.60
35463;DHT22;21578;47.892;9.970;2023-05-16T23:57:11;7.60;96.60
